Time;durP1;ratioP1;P1;durP2;ratioP2;P2;SDS_P1;SDS_P2;PMS_P1;PMS_P2;Temp;Humidity;BMP_temperature;BMP_pressure;BME280_temperature;BME280_humidity;BME280_pressure;Samples;Min_cycle;Max_cycle;Signal;HPM_P1;HPM_P2
2020/12/16 00:02:25;;;;;;;50.72;28.05;;;6.40;99.90;;;;;;5012960;28;20497;-80
2020/12/16 00:04:52;;;;;;;50.88;28.27;;;6.40;99.90;;;;;;5013081;28;20497;-79
2020/12/16 00:07:19;;;;;;;49.05;28.38;;;6.40;99.90;;;;;;5013466;28;20483;-81
2020/12/16 00:09:47;;;;;;;55.90;32.33;;;6.40;99.90;;;;;;5012908;28;20036;-81
2020/12/16 00:12:13;;;;;;;49.65;29.45;;;6.50;99.90;;;;;;5013398;28;20026;-82
2020/12/16 00:14:42;;;;;;;55.58;27.50;;;6.40;99.90;;;;;;5013305;28;20391;-79
2020/12/16 00:17:08;;;;;;;46.08;26.75;;;6.30;99.90;;;;;;5012802;28;20046;-81
2020/12/16 00:19:34;;;;;;;46.92;25.88;;;6.20;99.90;;;;;;5013428;28;20225;-81
2020/12/16 00:22:01;;;;;;;47.60;27.20;;;6.10;99.90;;;;;;5011688;28;20050;-81
2020/12/16 00:24:27;;;;;;;54.80;31.23;;;6.10;99.90;;;;;;4997882;28;20037;-81
2020/12/16 00:26:54;;;;;;;49.58;29.63;;;6.10;99.90;;;;;;5017965;28;20041;-81
2020/12/16 00:29:20;;;;;;;46.30;28.73;;;6.10;99.90;;;;;;5013450;28;20041;-82
2020/12/16 00:31:46;;;;;;;43.35;26.48;;;6.20;99.90;;;;;;5013210;28;20390;-81
2020/12/16 00:34:13;;;;;;;50.53;28.25;;;6.20;99.90;;;;;;5013164;28;20033;-82
2020/12/16 00:36:40;;;;;;;55.80;30.98;;;6.10;99.90;;;;;;5013496;28;20093;-82
2020/12/16 00:39:08;;;;;;;52.85;30.90;;;6.10;99.90;;;;;;5013066;28;20030;-82
2020/12/16 00:41:35;;;;;;;73.78;39.67;;;6.10;99.90;;;;;;5012765;28;20037;-82
2020/12/16 00:44:02;;;;;;;73.97;42.28;;;6.10;99.90;;;;;;5012501;28;20586;-82
2020/12/16 00:46:28;;;;;;;66.75;38.20;;;6.20;99.90;;;;;;5015930;28;20025;-80
2020/12/16 00:48:55;;;;;;;122.28;60.63;;;6.30;99.90;;;;;;5014741;28;20041;-82
2020/12/16 00:51:21;;;;;;;107.07;52.83;;;6.40;99.90;;;;;;4994770;28;20053;-82
2020/12/16 00:53:50;;;;;;;95.60;43.58;;;6.60;99.90;;;;;;4995065;28;20053;-83
2020/12/16 00:56:16;;;;;;;107.97;47.97;;;6.70;99.90;;;;;;4995018;28;20403;-80
2020/12/16 00:58:42;;;;;;;84.93;40.55;;;6.70;99.90;;;;;;4994211;28;20479;-83
2020/12/16 01:01:09;;;;;;;102.05;43.17;;;6.80;99.90;;;;;;5011133;28;20053;-81
2020/12/16 01:03:36;;;;;;;91.00;37.50;;;6.90;99.90;;;;;;4994887;28;20049;-83
2020/12/16 01:06:03;;;;;;;100.03;34.83;;;6.90;99.90;;;;;;4997872;28;20030;-82
2020/12/16 01:08:30;;;;;;;110.53;34.45;;;7.00;99.90;;;;;;4995208;28;20046;-82
2020/12/16 01:10:58;;;;;;;124.38;38.95;;;7.10;99.90;;;;;;5011840;28;20495;-80
2020/12/16 01:13:29;;;;;;;102.45;35.22;;;7.10;99.90;;;;;;5011125;28;20037;-82
2020/12/16 01:15:55;;;;;;;131.52;39.22;;;7.10;99.90;;;;;;4994886;28;20026;-81
2020/12/16 01:18:21;;;;;;;216.32;81.32;;;7.10;99.90;;;;;;4994436;28;20502;-80
2020/12/16 01:20:51;;;;;;;104.45;41.83;;;7.10;99.90;;;;;;4994290;28;20046;-83
2020/12/16 01:23:30;;;;;;;123.50;33.70;;;7.20;99.90;;;;;;4994764;28;20053;-81
2020/12/16 01:25:56;;;;;;;108.20;33.55;;;7.10;99.90;;;;;;5012094;28;20510;-81
2020/12/16 01:28:23;;;;;;;115.07;30.35;;;7.20;99.90;;;;;;4995153;28;20053;-82
2020/12/16 01:30:55;;;;;;;130.05;32.70;;;7.20;99.90;;;;;;4994783;28;20049;-81
2020/12/16 01:33:21;;;;;;;109.60;32.60;;;7.20;99.90;;;;;;4994714;28;20038;-80
2020/12/16 01:35:59;;;;;;;113.57;32.28;;;7.20;99.90;;;;;;4997346;28;20471;-80
2020/12/16 01:38:26;;;;;;;164.63;34.25;;;7.20;99.90;;;;;;4998838;28;20470;-82
2020/12/16 01:41:03;;;;;;;122.22;30.27;;;7.20;99.90;;;;;;5016106;28;20041;-82
2020/12/16 01:43:35;;;;;;;100.95;30.67;;;7.20;99.90;;;;;;4998804;28;20042;-81
2020/12/16 01:46:01;;;;;;;;;;;7.20;99.90;;;;;;4998911;28;20065;-81
2020/12/16 01:48:27;;;;;;;99.30;29.38;;;7.20;99.90;;;;;;5016191;28;19916;-82
2020/12/16 01:50:54;;;;;;;129.50;35.35;;;7.20;99.90;;;;;;5013600;28;20045;-83
2020/12/16 01:53:21;;;;;;;94.68;29.25;;;7.30;99.90;;;;;;5016025;28;20033;-82
2020/12/16 01:55:50;;;;;;;122.88;33.53;;;7.30;99.90;;;;;;4997678;28;20049;-82
2020/12/16 01:58:33;;;;;;;127.30;33.75;;;7.30;99.90;;;;;;4998656;28;20038;-83
2020/12/16 02:01:02;;;;;;;125.22;32.08;;;7.50;99.90;;;;;;4998990;28;20049;-82
2020/12/16 02:03:31;;;;;;;134.02;36.45;;;7.50;99.90;;;;;;4997634;28;20050;-82
2020/12/16 02:06:11;;;;;;;146.77;36.83;;;7.50;99.90;;;;;;5015122;28;20049;-81
2020/12/16 02:08:43;;;;;;;155.60;35.78;;;7.60;99.90;;;;;;5015487;28;20034;-82
2020/12/16 02:11:13;;;;;;;152.25;35.88;;;7.60;99.90;;;;;;4998345;28;20037;-82
2020/12/16 02:13:44;;;;;;;156.25;35.85;;;7.60;99.90;;;;;;4998469;28;20041;-82
2020/12/16 02:16:11;;;;;;;151.80;37.97;;;7.60;99.90;;;;;;4998479;28;20046;-81
2020/12/16 02:18:37;;;;;;;151.13;35.42;;;7.70;99.90;;;;;;5015415;28;20049;-82
2020/12/16 02:21:14;;;;;;;154.52;34.85;;;7.70;99.90;;;;;;4998353;28;20049;-80
2020/12/16 02:23:44;;;;;;;127.45;35.35;;;7.70;99.90;;;;;;4997576;28;20068;-81
2020/12/16 02:26:11;;;;;;;134.95;37.20;;;7.70;99.90;;;;;;4998244;28;20062;-82
2020/12/16 02:28:38;;;;;;;139.75;34.42;;;7.70;99.90;;;;;;4998784;28;20411;-82
2020/12/16 02:31:05;;;;;;;145.82;37.05;;;7.70;99.90;;;;;;4998118;28;20475;-82
2020/12/16 02:33:42;;;;;;;159.65;34.95;;;7.80;99.90;;;;;;4997802;28;20042;-79
2020/12/16 02:36:17;;;;;;;163.77;34.58;;;7.90;99.90;;;;;;5003622;28;20046;-82
2020/12/16 02:38:54;;;;;;;147.40;36.42;;;7.90;99.90;;;;;;5016230;28;20041;-83
2020/12/16 02:41:24;;;;;;;152.60;34.78;;;7.80;99.90;;;;;;4999104;28;20033;-81
2020/12/16 02:43:51;;;;;;;173.18;37.00;;;7.80;99.90;;;;;;5014261;28;20486;-80
2020/12/16 02:46:19;;;;;;;154.73;34.22;;;7.80;99.90;;;;;;4997627;28;20494;-82
2020/12/16 02:48:46;;;;;;;146.60;35.20;;;7.80;99.90;;;;;;4997587;28;20064;-81
2020/12/16 02:51:12;;;;;;;146.68;33.92;;;7.80;99.90;;;;;;4997541;28;20049;-82
2020/12/16 02:53:39;;;;;;;160.60;32.17;;;7.80;99.90;;;;;;4997340;28;20045;-83
2020/12/16 02:56:31;;;;;;;222.65;39.17;;;7.80;99.90;;;;;;4996730;28;20046;-79
2020/12/16 02:59:05;;;;;;;226.90;37.33;;;7.80;99.90;;;;;;5014255;28;20465;-81
2020/12/16 03:01:37;;;;;;;195.10;37.08;;;7.80;99.90;;;;;;4997833;28;20049;-82
2020/12/16 03:04:09;;;;;;;173.50;34.55;;;7.80;99.90;;;;;;4997512;28;20057;-82
2020/12/16 03:06:50;;;;;;;207.07;37.63;;;7.80;99.90;;;;;;4997153;28;20430;-83
2020/12/16 03:09:22;;;;;;;148.13;33.13;;;7.80;99.90;;;;;;4997283;28;20046;-81
2020/12/16 03:11:55;;;;;;;159.65;30.90;;;7.70;99.90;;;;;;4997336;28;20038;-83
2020/12/16 03:14:26;;;;;;;186.40;35.38;;;7.80;99.90;;;;;;4997827;28;20484;-83
2020/12/16 03:16:57;;;;;;;172.90;34.33;;;7.70;99.90;;;;;;4997326;28;20045;-83
2020/12/16 03:19:29;;;;;;;166.55;33.97;;;7.70;99.90;;;;;;4998935;28;20046;-82
2020/12/16 03:21:56;;;;;;;131.63;32.58;;;7.70;99.90;;;;;;5015221;28;20057;-82
2020/12/16 03:24:38;;;;;;;116.45;28.15;;;7.50;99.90;;;;;;5008454;28;20046;-80
2020/12/16 03:27:13;;;;;;;119.80;31.10;;;7.30;99.90;;;;;;5004528;28;20046;-83
2020/12/16 03:29:54;;;;;;;101.10;27.50;;;7.20;99.90;;;;;;5013710;28;20046;-84
2020/12/16 03:32:52;;;;;;;110.75;29.52;;;7.20;99.90;;;;;;4979495;28;20046;-83
2020/12/16 03:35:25;;;;;;;135.90;31.73;;;7.20;99.90;;;;;;5014495;28;20403;-82
2020/12/16 03:37:56;;;;;;;112.63;26.98;;;7.10;99.90;;;;;;4995963;28;20041;-83
2020/12/16 03:40:26;;;;;;;92.65;25.15;;;7.10;99.90;;;;;;4996346;28;20042;-84
2020/12/16 03:42:58;;;;;;;101.03;24.83;;;7.00;99.90;;;;;;4996651;28;20042;-81
2020/12/16 03:45:25;;;;;;;100.70;25.92;;;6.90;99.90;;;;;;5014274;28;20054;-83
2020/12/16 03:47:52;;;;;;;93.88;26.08;;;6.90;99.90;;;;;;4996807;28;20050;-83
2020/12/16 03:50:19;;;;;;;103.78;26.55;;;6.90;99.90;;;;;;4997056;28;20053;-83
2020/12/16 03:52:47;;;;;;;92.18;25.92;;;6.90;99.90;;;;;;4996265;28;20046;-79
2020/12/16 03:55:31;;;;;;;102.80;27.55;;;6.90;99.90;;;;;;5015332;28;20069;-84
2020/12/16 03:58:15;;;;;;;109.22;28.25;;;6.90;99.90;;;;;;5014717;28;20395;-81
2020/12/16 04:01:09;;;;;;;86.88;27.38;;;6.90;99.90;;;;;;5030234;28;20050;-82
2020/12/16 04:03:37;;;;;;;113.50;28.00;;;6.90;99.90;;;;;;5017373;28;20383;-82
2020/12/16 04:06:14;;;;;;;99.45;28.88;;;6.90;99.90;;;;;;4997269;28;20475;-82
2020/12/16 04:08:44;;;;;;;103.05;28.70;;;6.90;99.90;;;;;;4997142;28;20510;-82
2020/12/16 04:11:35;;;;;;;103.90;29.05;;;6.90;99.90;;;;;;4996762;28;20041;-82
2020/12/16 04:14:13;;;;;;;109.22;30.17;;;6.80;99.90;;;;;;4996660;28;20056;-82
2020/12/16 04:16:41;;;;;;;117.43;31.67;;;6.80;99.90;;;;;;4995993;28;20042;-82
2020/12/16 04:19:12;;;;;;;110.47;29.33;;;6.80;99.90;;;;;;4995948;28;20042;-81
2020/12/16 04:21:38;;;;;;;119.20;31.67;;;6.80;99.90;;;;;;5002881;28;20285;-82
2020/12/16 04:24:07;;;;;;;118.95;31.55;;;6.90;99.90;;;;;;5000431;28;20210;-84
2020/12/16 04:26:44;;;;;;;115.50;28.30;;;6.80;99.90;;;;;;4997735;28;20053;-80
2020/12/16 04:29:14;;;;;;;120.10;31.13;;;6.80;99.90;;;;;;5012522;28;20087;-81
2020/12/16 04:31:41;;;;;;;115.25;30.38;;;6.90;99.90;;;;;;5013592;28;20371;-81
2020/12/16 04:34:09;;;;;;;122.38;28.98;;;6.90;99.90;;;;;;5013281;28;20476;-81
2020/12/16 04:36:38;;;;;;;105.90;29.20;;;6.90;99.90;;;;;;4996167;28;20050;-82
2020/12/16 04:39:04;;;;;;;109.40;29.02;;;6.80;99.90;;;;;;4995670;28;20242;-81
2020/12/16 04:41:30;;;;;;;115.35;28.35;;;6.90;99.90;;;;;;4996714;28;20037;-81
2020/12/16 04:44:13;;;;;;;121.05;30.77;;;6.90;99.90;;;;;;4996091;28;20041;-82
2020/12/16 04:46:44;;;;;;;110.60;28.90;;;6.90;99.90;;;;;;4995973;28;20379;-82
2020/12/16 04:49:18;;;;;;;118.50;28.15;;;6.90;99.90;;;;;;4995497;28;20044;-82
2020/12/16 04:51:51;;;;;;;99.18;29.95;;;6.90;99.90;;;;;;4994380;28;20042;-82
2020/12/16 04:54:28;;;;;;;102.13;27.45;;;6.90;99.90;;;;;;4996003;28;20368;-82
2020/12/16 04:56:59;;;;;;;107.57;29.13;;;6.90;99.90;;;;;;4995183;28;20046;-80
2020/12/16 04:59:34;;;;;;;118.78;28.42;;;6.90;99.90;;;;;;5010643;28;20050;-82
2020/12/16 05:02:12;;;;;;;131.70;31.00;;;6.90;99.90;;;;;;4995151;28;20387;-82
2020/12/16 05:05:01;;;;;;;132.43;29.70;;;6.90;99.90;;;;;;5029867;28;20049;-82
2020/12/16 05:07:28;;;;;;;108.85;29.90;;;6.90;99.90;;;;;;5012653;28;20033;-82
2020/12/16 05:09:55;;;;;;;116.78;28.30;;;6.90;99.90;;;;;;5011498;28;20034;-82
2020/12/16 05:12:21;;;;;;;108.50;28.70;;;6.90;99.90;;;;;;5012118;28;20049;-83
2020/12/16 05:14:48;;;;;;;127.80;30.38;;;6.90;99.90;;;;;;5011828;28;20040;-82
2020/12/16 05:17:14;;;;;;;118.90;30.73;;;6.90;99.90;;;;;;5012331;28;20049;-82
2020/12/16 05:19:55;;;;;;;124.43;30.83;;;6.90;99.90;;;;;;4994430;28;20038;-82
2020/12/16 05:22:30;;;;;;;128.05;31.58;;;6.90;99.90;;;;;;5016263;28;20292;-82
2020/12/16 05:24:58;;;;;;;134.63;32.53;;;6.90;99.90;;;;;;5011238;28;20398;-83
2020/12/16 05:27:26;;;;;;;139.23;31.63;;;6.90;99.90;;;;;;5012356;28;20025;-84
2020/12/16 05:29:54;;;;;;;119.03;33.30;;;6.90;99.90;;;;;;5012056;28;20026;-83
2020/12/16 05:32:26;;;;;;;127.13;32.45;;;6.90;99.90;;;;;;5012457;28;20455;-84
2020/12/16 05:34:53;;;;;;;119.88;31.83;;;6.90;99.90;;;;;;5012452;28;20038;-84
2020/12/16 05:37:23;;;;;;;134.57;32.97;;;6.90;99.90;;;;;;5016464;28;20037;-84
2020/12/16 05:40:02;;;;;;;141.32;34.20;;;6.90;99.90;;;;;;5012560;28;20042;-84
2020/12/16 05:42:29;;;;;;;132.90;34.15;;;6.90;99.90;;;;;;5012719;28;20034;-84
2020/12/16 05:44:57;;;;;;;134.25;34.08;;;6.90;99.90;;;;;;5011830;28;20053;-84
2020/12/16 05:47:24;;;;;;;134.35;32.67;;;6.90;99.90;;;;;;5012055;28;20037;-85
2020/12/16 05:49:50;;;;;;;132.05;32.60;;;6.90;99.90;;;;;;5011687;28;20026;-84
2020/12/16 05:52:17;;;;;;;131.98;34.50;;;6.90;99.90;;;;;;5012215;28;20383;-85
2020/12/16 05:54:49;;;;;;;146.75;32.00;;;6.90;99.90;;;;;;5012275;28;20038;-84
2020/12/16 05:57:20;;;;;;;131.35;33.13;;;6.90;99.90;;;;;;5012388;28;20093;-85
2020/12/16 06:00:11;;;;;;;140.73;33.83;;;6.90;99.90;;;;;;5011779;28;21723;-84
2020/12/16 06:02:43;;;;;;;131.82;32.95;;;6.90;99.90;;;;;;5027259;28;20025;-84
2020/12/16 06:05:18;;;;;;;136.00;33.55;;;6.90;99.90;;;;;;5022584;28;20042;-84
2020/12/16 06:07:46;;;;;;;134.68;33.25;;;6.90;99.90;;;;;;5012705;28;20029;-83
2020/12/16 06:10:13;;;;;;;131.82;33.92;;;6.90;99.90;;;;;;5012814;28;20042;-84
2020/12/16 06:12:44;;;;;;;134.40;34.00;;;7.00;99.90;;;;;;5014502;28;20395;-83
2020/12/16 06:15:12;;;;;;;128.63;34.25;;;6.90;99.90;;;;;;5019125;28;20455;-83
2020/12/16 06:17:44;;;;;;;143.02;34.33;;;6.90;99.90;;;;;;5013444;28;20037;-85
2020/12/16 06:20:15;;;;;;;132.90;32.67;;;7.00;99.90;;;;;;5012690;28;20030;-84
2020/12/16 06:22:44;;;;;;;135.27;34.90;;;7.00;99.90;;;;;;5015322;28;20034;-85
2020/12/16 06:25:13;;;;;;;133.35;33.17;;;7.00;99.90;;;;;;5014672;28;20045;-79
2020/12/16 06:27:47;;;;;;;121.40;34.58;;;7.00;99.90;;;;;;5013279;28;20052;-75
2020/12/16 06:30:28;;;;;;;136.32;33.30;;;7.00;99.90;;;;;;5015412;28;20045;-77
2020/12/16 06:33:18;;;;;;;123.53;34.40;;;7.00;99.90;;;;;;5015097;28;20038;-78
2020/12/16 06:35:46;;;;;;;126.03;31.33;;;7.00;99.90;;;;;;5014944;28;20053;-78
2020/12/16 06:38:23;;;;;;;103.03;31.60;;;7.00;99.90;;;;;;5014768;28;20042;-77
2020/12/16 06:40:55;;;;;;;123.28;33.13;;;6.90;99.90;;;;;;5021794;28;20029;-79
2020/12/16 06:43:42;;;;;;;127.53;33.97;;;7.00;99.90;;;;;;5014546;28;20479;-79
2020/12/16 06:46:27;;;;;;;121.07;31.73;;;6.90;99.90;;;;;;5014729;28;20057;-79
2020/12/16 06:48:53;;;;;;;112.07;31.50;;;6.90;99.90;;;;;;5014181;28;20025;-79
2020/12/16 06:51:21;;;;;;;147.60;35.47;;;6.90;99.90;;;;;;5014505;28;20030;-75
2020/12/16 06:53:49;;;;;;;164.43;39.58;;;6.90;99.90;;;;;;5017850;28;20028;-79
2020/12/16 06:56:19;;;;;;;141.35;37.83;;;7.00;99.90;;;;;;5040756;28;20048;-79
2020/12/16 06:58:46;;;;;;;140.75;37.67;;;7.00;99.90;;;;;;5036581;28;20515;-79
2020/12/16 07:01:14;;;;;;;143.75;36.88;;;7.00;99.90;;;;;;5014970;28;20037;-80
2020/12/16 07:03:41;;;;;;;136.80;36.35;;;7.00;99.90;;;;;;5014516;28;20030;-80
2020/12/16 07:06:29;;;;;;;142.07;37.70;;;7.00;99.90;;;;;;5014327;28;20046;-80
2020/12/16 07:09:21;;;;;;;153.55;38.83;;;7.00;99.90;;;;;;5014156;28;20045;-79
2020/12/16 07:11:54;;;;;;;142.93;35.10;;;7.00;99.90;;;;;;5013701;28;20041;-79
2020/12/16 07:14:36;;;;;;;126.78;34.40;;;7.00;99.90;;;;;;5014122;28;20034;-79
2020/12/16 07:17:10;;;;;;;149.38;37.50;;;7.10;99.90;;;;;;5014030;28;20045;-77
2020/12/16 07:19:37;;;;;;;148.07;43.85;;;7.00;99.90;;;;;;5013992;28;20026;-77
2020/12/16 07:22:24;;;;;;;195.27;76.80;;;7.10;99.90;;;;;;5013307;28;20038;-75
2020/12/16 07:24:52;;;;;;;150.55;38.47;;;7.10;99.90;;;;;;5013568;28;20049;-75
2020/12/16 07:27:24;;;;;;;128.18;35.63;;;7.10;99.90;;;;;;5013334;28;20046;-76
2020/12/16 07:29:58;;;;;;;143.90;35.58;;;7.10;99.90;;;;;;5013663;28;20042;-75
2020/12/16 07:32:25;;;;;;;126.75;35.03;;;7.10;99.90;;;;;;5012633;28;20041;-76
2020/12/16 07:35:00;;;;;;;143.43;36.42;;;7.10;99.90;;;;;;5013580;28;20455;-75
2020/12/16 07:37:31;;;;;;;122.18;33.38;;;7.10;99.90;;;;;;4996586;28;20052;-75
2020/12/16 07:40:00;;;;;;;140.70;35.67;;;7.10;99.90;;;;;;5013875;28;20030;-79
2020/12/16 07:42:29;;;;;;;127.85;35.25;;;7.10;99.90;;;;;;5013616;28;20455;-76
2020/12/16 07:44:55;;;;;;;136.85;35.38;;;7.10;99.90;;;;;;5007787;28;20037;-74
2020/12/16 07:47:22;;;;;;;129.02;34.00;;;7.20;99.90;;;;;;5038861;28;20026;-75
2020/12/16 07:49:48;;;;;;;130.18;35.13;;;7.30;99.90;;;;;;5012164;28;20390;-75
2020/12/16 07:52:15;;;;;;;130.95;33.53;;;7.30;99.90;;;;;;5013173;28;20097;-76
2020/12/16 07:54:42;;;;;;;119.22;35.22;;;7.30;99.90;;;;;;5012935;28;20036;-76
2020/12/16 07:57:08;;;;;;;116.78;34.10;;;7.30;99.90;;;;;;4995506;28;20623;-76
2020/12/16 07:59:35;;;;;;;114.22;34.45;;;7.30;99.90;;;;;;5012968;28;20050;-76
2020/12/16 08:02:12;;;;;;;114.38;37.28;;;7.40;99.90;;;;;;5012376;28;20034;-75
2020/12/16 08:04:41;;;;;;;114.22;34.60;;;7.40;99.90;;;;;;5029367;28;20032;-76
2020/12/16 08:07:18;;;;;;;125.00;41.13;;;7.60;99.90;;;;;;5019649;28;20037;-75
2020/12/16 08:09:59;;;;;;;118.95;32.80;;;7.60;99.90;;;;;;5037986;28;20037;-75
2020/12/16 08:12:27;;;;;;;108.95;33.70;;;7.50;99.90;;;;;;5037601;28;20025;-75
2020/12/16 08:15:16;;;;;;;111.95;38.33;;;7.50;99.90;;;;;;5037655;28;20035;-74
2020/12/16 08:17:45;;;;;;;99.85;33.35;;;7.60;99.90;;;;;;5040103;28;20034;-75
2020/12/16 08:20:12;;;;;;;108.55;33.40;;;7.60;99.90;;;;;;5020616;28;20034;-75
2020/12/16 08:22:39;;;;;;;115.45;33.75;;;7.70;99.90;;;;;;5022392;28;20029;-77
2020/12/16 08:25:10;;;;;;;97.43;30.40;;;7.70;99.90;;;;;;5015726;28;20087;-76
2020/12/16 08:27:50;;;;;;;96.28;29.50;;;7.70;99.90;;;;;;5038271;28;20025;-75
2020/12/16 08:30:24;;;;;;;106.35;33.25;;;7.90;99.90;;;;;;5024107;28;20042;-75
2020/12/16 08:32:59;;;;;;;104.70;31.83;;;8.00;99.90;;;;;;4981518;28;20479;-75
2020/12/16 08:35:31;;;;;;;110.10;32.47;;;8.20;99.90;;;;;;5012703;28;20048;-75
2020/12/16 08:38:11;;;;;;;95.60;30.33;;;8.50;99.90;;;;;;5031235;28;20029;-75
2020/12/16 08:40:40;;;;;;;88.80;30.08;;;8.60;99.90;;;;;;5018231;28;20045;-75
2020/12/16 08:43:24;;;;;;;78.03;28.15;;;8.70;99.90;;;;;;5011190;28;20348;-76
2020/12/16 08:46:14;;;;;;;82.78;32.92;;;8.80;99.90;;;;;;5011632;28;20075;-75
2020/12/16 08:48:51;;;;;;;82.13;34.77;;;8.90;99.90;;;;;;4995121;28;20046;-77
2020/12/16 08:51:22;;;;;;;71.80;30.20;;;8.90;99.90;;;;;;5031323;28;20280;-76
2020/12/16 08:53:57;;;;;;;72.07;28.80;;;8.80;99.90;;;;;;5011984;28;20041;-77
2020/12/16 08:56:33;;;;;;;67.40;25.88;;;8.80;99.90;;;;;;4995291;28;20038;-77
2020/12/16 08:59:10;;;;;;;69.53;25.33;;;8.80;99.90;;;;;;5011393;28;20054;-76
2020/12/16 09:01:40;;;;;;;69.53;26.65;;;8.80;99.90;;;;;;4985739;28;20094;-77
2020/12/16 09:04:08;;;;;;;70.72;27.85;;;8.80;99.90;;;;;;5036728;28;20021;-76
2020/12/16 09:06:35;;;;;;;69.97;26.27;;;8.90;99.90;;;;;;5008431;28;20045;-77
2020/12/16 09:09:12;;;;;;;66.05;27.17;;;8.90;99.90;;;;;;5017336;28;20049;-75
2020/12/16 09:11:45;;;;;;;69.20;26.55;;;8.90;99.90;;;;;;5001109;28;20033;-77
2020/12/16 09:14:12;;;;;;;68.80;26.10;;;9.00;99.90;;;;;;5000648;28;20612;-77
2020/12/16 09:16:38;;;;;;;73.03;26.33;;;9.00;99.90;;;;;;5037162;28;20033;-77
2020/12/16 09:19:04;;;;;;;67.80;28.83;;;8.90;99.90;;;;;;5037525;28;20036;-75
2020/12/16 09:21:34;;;;;;;68.47;27.00;;;8.90;99.90;;;;;;5026233;28;20032;-76
2020/12/16 09:24:02;;;;;;;72.45;27.88;;;9.00;99.90;;;;;;5025460;28;20041;-76
2020/12/16 09:26:40;;;;;;;70.30;29.25;;;9.10;99.90;;;;;;5035248;28;20042;-76
2020/12/16 09:29:18;;;;;;;74.22;28.85;;;9.20;99.90;;;;;;5013508;28;20030;-77
2020/12/16 09:31:46;;;;;;;60.05;26.40;;;9.20;99.90;;;;;;5011487;28;20034;-77
2020/12/16 09:34:12;;;;;;;50.72;27.30;;;9.20;99.90;;;;;;4994704;28;20070;-76
2020/12/16 09:36:38;;;;;;;55.58;26.20;;;9.10;99.90;;;;;;5011761;28;20029;-76
2020/12/16 09:39:06;;;;;;;51.85;27.35;;;9.20;99.90;;;;;;5011221;28;20030;-78
2020/12/16 09:41:50;;;;;;;52.47;26.08;;;9.40;99.90;;;;;;5011706;28;20360;-74
2020/12/16 09:44:30;;;;;;;45.05;25.02;;;9.50;99.90;;;;;;5034639;28;20479;-74
2020/12/16 09:47:14;;;;;;;42.83;23.70;;;9.70;99.90;;;;;;5011027;28;20049;-75
2020/12/16 09:49:42;;;;;;;39.60;22.15;;;9.80;99.90;;;;;;5011488;28;20038;-75
2020/12/16 09:52:32;;;;;;;32.80;19.05;;;10.00;99.90;;;;;;5011471;28;20030;-75
2020/12/16 09:55:19;;;;;;;27.75;18.02;;;10.10;99.90;;;;;;5011286;28;20037;-75
2020/12/16 09:58:04;;;;;;;28.77;17.45;;;10.30;99.90;;;;;;5020190;28;20034;-74
2020/12/16 10:00:32;;;;;;;25.42;16.67;;;10.30;99.90;;;;;;5015335;28;20050;-75
2020/12/16 10:03:01;;;;;;;30.45;17.20;;;10.30;99.90;;;;;;4997659;28;20045;-75
2020/12/16 10:05:28;;;;;;;34.35;18.85;;;10.10;99.90;;;;;;5012872;28;20118;-74
2020/12/16 10:07:55;;;;;;;28.70;17.38;;;10.20;99.90;;;;;;5011579;28;20045;-74
2020/12/16 10:10:22;;;;;;;24.30;15.32;;;10.30;99.90;;;;;;5015513;28;20037;-74
2020/12/16 10:12:49;;;;;;;24.33;14.55;;;10.60;99.90;;;;;;5014527;28;20042;-74
2020/12/16 10:15:16;;;;;;;21.63;15.50;;;10.50;99.90;;;;;;5014480;28;20470;-74
2020/12/16 10:17:42;;;;;;;118.50;60.22;;;10.50;99.90;;;;;;4997742;28;20045;-75
2020/12/16 10:20:10;;;;;;;67.40;35.53;;;10.40;99.90;;;;;;4996509;28;20046;-73
2020/12/16 10:22:37;;;;;;;179.10;102.47;;;10.30;99.90;;;;;;5014642;28;20034;-74
2020/12/16 10:25:05;;;;;;;90.00;53.80;;;10.30;99.90;;;;;;4993245;28;20046;-74
2020/12/16 10:27:32;;;;;;;97.65;62.38;;;10.40;99.90;;;;;;4997371;28;20050;-74
2020/12/16 10:29:59;;;;;;;43.28;32.85;;;10.40;99.90;;;;;;5014316;28;20042;-74
2020/12/16 10:32:26;;;;;;;30.75;19.92;;;10.50;99.90;;;;;;4997942;28;20025;-73
2020/12/16 10:34:53;;;;;;;45.40;24.10;;;10.50;99.90;;;;;;5014695;28;20037;-75
2020/12/16 10:37:21;;;;;;;68.88;40.38;;;10.50;99.90;;;;;;5033065;28;20390;-81
2020/12/16 10:39:47;;;;;;;52.03;31.67;;;10.40;99.90;;;;;;5042639;28;20497;-81
2020/12/16 10:42:14;;;;;;;24.98;17.52;;;10.40;99.90;;;;;;5041636;28;20040;-81
2020/12/16 10:44:40;;;;;;;39.05;24.55;;;10.40;99.90;;;;;;5035523;28;20026;-81
2020/12/16 10:47:07;;;;;;;30.58;22.42;;;10.50;99.90;;;;;;5015964;28;20395;-79
2020/12/16 10:49:34;;;;;;;25.77;17.27;;;10.60;99.90;;;;;;5016408;28;20033;-83
2020/12/16 10:52:14;;;;;;;30.88;19.63;;;10.70;99.90;;;;;;5014054;28;20034;-79
2020/12/16 10:54:41;;;;;;;44.13;28.07;;;10.70;99.90;;;;;;5014306;28;20041;-80
2020/12/16 10:57:08;;;;;;;64.15;33.83;;;10.70;99.90;;;;;;5013751;28;20038;-79
2020/12/16 10:59:35;;;;;;;44.28;27.95;;;10.80;99.90;;;;;;5013122;28;20038;-78
2020/12/16 11:02:02;;;;;;;137.13;89.13;;;11.00;99.90;;;;;;5014254;28;20040;-79
2020/12/16 11:04:30;;;;;;;84.22;52.40;;;11.20;99.90;;;;;;5013650;28;20061;-79
2020/12/16 11:06:56;;;;;;;82.05;53.20;;;11.30;99.90;;;;;;5013695;28;20042;-78
2020/12/16 11:09:23;;;;;;;36.22;23.42;;;11.40;99.90;;;;;;5014537;28;20026;-79
2020/12/16 11:11:53;;;;;;;86.40;56.90;;;11.40;99.90;;;;;;5014437;28;20041;-79
2020/12/16 11:14:20;;;;;;;57.42;34.35;;;11.30;99.90;;;;;;5014161;28;20033;-80
2020/12/16 11:16:47;;;;;;;34.15;20.70;;;11.30;99.90;;;;;;5014173;28;20034;-80
2020/12/16 11:19:17;;;;;;;37.95;23.27;;;11.30;99.90;;;;;;5013944;28;20033;-79
2020/12/16 11:21:49;;;;;;;17.92;12.10;;;11.30;99.90;;;;;;5014198;28;20455;-79
2020/12/16 11:24:17;;;;;;;45.33;27.77;;;11.40;99.90;;;;;;5013635;28;20037;-78
2020/12/16 11:26:46;;;;;;;98.63;54.45;;;11.40;99.90;;;;;;5013790;28;20387;-78
2020/12/16 11:29:18;;;;;;;194.43;103.13;;;11.40;99.90;;;;;;5004806;28;20045;-78
2020/12/16 11:31:47;;;;;;;29.77;19.38;;;11.40;99.90;;;;;;5014391;28;20042;-79
2020/12/16 11:34:19;;;;;;;15.07;11.18;;;11.50;99.90;;;;;;5013082;28;20034;-78
2020/12/16 11:36:48;;;;;;;30.85;17.63;;;11.50;99.90;;;;;;5013272;28;20068;-78
2020/12/16 11:39:15;;;;;;;37.13;21.63;;;11.50;99.90;;;;;;5016015;28;20060;-79
2020/12/16 11:41:47;;;;;;;24.92;16.40;;;11.50;99.90;;;;;;5013867;28;20034;-79
2020/12/16 11:44:17;;;;;;;58.70;36.25;;;11.30;99.90;;;;;;5013701;28;20494;-78
2020/12/16 11:46:44;;;;;;;57.03;33.97;;;11.30;99.90;;;;;;5013792;28;20506;-78
2020/12/16 11:49:11;;;;;;;66.35;39.42;;;11.30;99.90;;;;;;5012740;28;20038;-78
2020/12/16 11:51:38;;;;;;;27.30;16.85;;;11.40;99.90;;;;;;5013395;28;20041;-79
2020/12/16 11:54:05;;;;;;;21.10;14.63;;;11.40;99.90;;;;;;5012908;28;20064;-78
2020/12/16 11:56:33;;;;;;;31.52;18.73;;;11.40;99.90;;;;;;5013503;28;20034;-79
2020/12/16 11:59:04;;;;;;;56.15;33.92;;;11.40;99.90;;;;;;5012388;28;20069;-78
2020/12/16 12:01:31;;;;;;;25.98;17.30;;;11.40;99.90;;;;;;5013657;28;20046;-79
2020/12/16 12:03:58;;;;;;;63.10;37.70;;;11.50;99.90;;;;;;5012820;28;20050;-79
2020/12/16 12:06:25;;;;;;;30.60;20.13;;;11.50;99.90;;;;;;5012898;28;20101;-78
2020/12/16 12:08:52;;;;;;;41.65;24.27;;;11.50;99.90;;;;;;5013241;28;20052;-78
2020/12/16 12:11:18;;;;;;;18.58;11.43;;;11.50;99.90;;;;;;5012724;28;20028;-79
2020/12/16 12:13:46;;;;;;;41.60;24.20;;;11.50;99.90;;;;;;5012920;28;20074;-78
2020/12/16 12:16:14;;;;;;;36.10;21.08;;;11.40;99.90;;;;;;5012930;28;20033;-78
2020/12/16 12:18:42;;;;;;;13.25;8.57;;;11.40;99.90;;;;;;5012438;28;20041;-79
2020/12/16 12:21:09;;;;;;;35.03;16.67;;;11.40;99.90;;;;;;5012441;28;20037;-78
2020/12/16 12:23:36;;;;;;;30.67;17.42;;;11.40;99.90;;;;;;5012917;28;20085;-79
2020/12/16 12:26:03;;;;;;;23.20;14.07;;;11.30;99.90;;;;;;5012677;28;20522;-79
2020/12/16 12:28:30;;;;;;;53.47;27.02;;;11.30;99.90;;;;;;5013598;28;20044;-79
2020/12/16 12:30:56;;;;;;;38.15;20.52;;;11.30;99.90;;;;;;5014517;28;20406;-75
2020/12/16 12:33:23;;;;;;;93.63;43.90;;;11.30;99.90;;;;;;5013583;28;20037;-80
2020/12/16 12:35:49;;;;;;;53.00;27.25;;;11.40;99.90;;;;;;5014228;28;20367;-81
2020/12/16 12:38:15;;;;;;;34.00;19.15;;;11.40;99.90;;;;;;5022843;28;20045;-79
2020/12/16 12:40:42;;;;;;;45.35;25.80;;;11.40;99.90;;;;;;5011956;28;20040;-78
2020/12/16 12:43:08;;;;;;;38.03;19.65;;;11.40;99.90;;;;;;5011550;28;20030;-79
2020/12/16 12:45:35;;;;;;;49.30;26.35;;;11.50;99.90;;;;;;4995558;28;20037;-79
2020/12/16 12:48:02;;;;;;;68.55;34.50;;;11.40;99.90;;;;;;5011949;28;20042;-79